createdAt,value
2022-08-12T00:00:50.616Z,2.95
2022-08-12T00:03:36.677Z,2.72
2022-08-12T00:06:23.081Z,2.83
2022-08-12T00:09:08.903Z,2.75
2022-08-12T00:11:55.477Z,2.78
2022-08-12T00:14:42.792Z,2.60
2022-08-12T00:17:28.585Z,2.92
2022-08-12T00:20:14.522Z,3.10
2022-08-12T00:23:00.407Z,2.78
2022-08-12T00:26:20.860Z,2.95
2022-08-12T00:29:02.002Z,2.95
2022-08-12T00:31:48.956Z,3.10
2022-08-12T00:34:35.825Z,3.10
2022-08-12T00:37:22.724Z,3.10
2022-08-12T00:40:11.543Z,3.42
2022-08-12T00:42:39.990Z,2.70
2022-08-12T00:45:08.736Z,3.10
2022-08-12T00:47:38.835Z,2.80
2022-08-12T00:50:08.004Z,2.65
2022-08-12T00:52:36.611Z,3.58
2022-08-12T00:55:06.308Z,3.10
2022-08-12T00:57:36.936Z,2.90
2022-08-12T01:00:09.240Z,2.80
2022-08-12T01:02:40.506Z,3.20
2022-08-12T01:05:29.105Z,3.13
2022-08-12T01:08:15.008Z,2.88
2022-08-12T01:11:03.179Z,2.78
2022-08-12T01:13:34.162Z,3.17
2022-08-12T01:16:04.189Z,2.92
2022-08-12T01:18:37.917Z,3.10
2022-08-12T01:21:12.776Z,3.08
2022-08-12T01:23:51.593Z,3.17
2022-08-12T01:26:23.282Z,3.35
2022-08-12T01:28:53.841Z,3.42
2022-08-12T01:31:24.109Z,3.25
2022-08-12T01:33:59.721Z,2.75
2022-08-12T01:36:29.178Z,3.55
2022-08-12T01:39:00.022Z,2.80
2022-08-12T01:41:31.955Z,3.15
2022-08-12T01:44:01.898Z,3.13
2022-08-12T01:46:40.623Z,3.35
2022-08-12T01:49:21.747Z,3.10
2022-08-12T01:52:20.915Z,3.38
2022-08-12T01:54:46.000Z,3.22
2022-08-12T01:57:58.139Z,3.42
2022-08-12T02:00:12.264Z,3.25
2022-08-12T02:02:46.604Z,3.83
2022-08-12T02:05:36.300Z,3.55
2022-08-12T02:08:46.590Z,2.60
2022-08-12T02:11:21.389Z,3.08
2022-08-12T02:14:14.299Z,3.40
2022-08-12T02:16:59.884Z,3.60
2022-08-12T02:19:41.274Z,3.58
2022-08-12T02:22:18.416Z,4.22
2022-08-12T02:24:47.417Z,3.70
2022-08-12T02:27:16.373Z,3.33
2022-08-12T02:29:45.816Z,3.17
2022-08-12T02:32:14.532Z,3.17
2022-08-12T02:34:44.546Z,3.20
2022-08-12T02:37:15.395Z,3.42
2022-08-12T02:39:49.509Z,3.13
2022-08-12T02:42:20.157Z,3.50
2022-08-12T02:44:52.293Z,3.13
2022-08-12T02:47:58.893Z,3.75
2022-08-12T02:50:11.878Z,3.25
2022-08-12T02:52:40.324Z,2.95
2022-08-12T02:55:28.723Z,3.50
2022-08-12T02:58:06.709Z,3.22
2022-08-12T03:00:39.144Z,3.80
2022-08-12T03:03:10.086Z,3.15
2022-08-12T03:05:45.340Z,3.38
2022-08-12T03:08:22.348Z,3.20
2022-08-12T03:11:06.262Z,3.08
2022-08-12T03:13:42.922Z,3.28
2022-08-12T03:16:12.317Z,3.22
2022-08-12T03:18:45.754Z,3.90
2022-08-12T03:21:17.490Z,3.70
2022-08-12T03:24:07.196Z,4.10
2022-08-12T03:26:36.810Z,3.17
2022-08-12T03:29:06.847Z,3.30
2022-08-12T03:31:36.290Z,3.45
2022-08-12T03:34:06.869Z,3.70
2022-08-12T03:36:36.247Z,3.58
2022-08-12T03:39:37.009Z,3.55
2022-08-12T03:42:12.690Z,3.53
2022-08-12T03:45:01.011Z,3.80
2022-08-12T03:47:52.192Z,3.65
2022-08-12T03:50:38.527Z,3.85
2022-08-12T03:53:25.199Z,3.63
2022-08-12T03:56:13.083Z,3.67
2022-08-12T03:58:58.976Z,3.80
2022-08-12T04:01:28.496Z,3.40
2022-08-12T04:03:58.062Z,3.08
2022-08-12T04:06:35.229Z,3.50
2022-08-12T04:09:16.192Z,3.97
2022-08-12T04:12:04.305Z,3.92
2022-08-12T04:14:33.378Z,3.88
2022-08-12T04:17:02.184Z,3.55
2022-08-12T04:19:32.007Z,3.67
2022-08-12T04:22:03.532Z,3.58
2022-08-12T04:24:34.605Z,3.72
2022-08-12T04:27:05.418Z,3.05
2022-08-12T04:30:16.913Z,3.65
2022-08-12T04:32:22.441Z,3.80
2022-08-12T04:34:51.991Z,3.92
2022-08-12T04:37:20.082Z,3.80
2022-08-12T04:39:48.876Z,3.28
2022-08-12T04:42:17.030Z,3.90
2022-08-12T04:44:45.052Z,3.72
2022-08-12T04:47:15.111Z,3.42
2022-08-12T04:49:45.473Z,4.65
2022-08-12T04:52:15.681Z,3.67
2022-08-12T04:54:44.556Z,3.78
2022-08-12T04:57:12.617Z,4.03
2022-08-12T04:59:47.551Z,3.92
2022-08-12T05:02:21.134Z,3.65
2022-08-12T05:04:52.576Z,4.00
2022-08-12T05:07:24.356Z,3.45
2022-08-12T05:09:59.190Z,4.38
2022-08-12T05:12:33.486Z,3.53
2022-08-12T05:15:01.635Z,3.63
2022-08-12T05:17:29.674Z,3.50
2022-08-12T05:19:58.457Z,3.58
2022-08-12T05:22:28.373Z,4.78
2022-08-12T05:24:56.361Z,3.92
2022-08-12T05:27:24.324Z,3.67
2022-08-12T05:30:06.893Z,2.83
2022-08-12T05:32:37.350Z,3.30
2022-08-12T05:35:08.075Z,3.83
2022-08-12T05:37:37.427Z,4.13
2022-08-12T05:40:10.993Z,3.30
2022-08-12T05:42:39.855Z,3.67
2022-08-12T05:45:09.198Z,3.95
2022-08-12T05:47:52.769Z,3.40
2022-08-12T05:50:22.203Z,3.17
2022-08-12T05:52:52.949Z,3.35
2022-08-12T05:55:24.158Z,3.13
2022-08-12T05:57:55.222Z,2.65
2022-08-12T06:00:25.636Z,2.78
2022-08-12T06:02:57.054Z,3.00
2022-08-12T06:05:25.151Z,3.05
2022-08-12T06:08:00.152Z,3.08
2022-08-12T06:10:32.210Z,3.60
2022-08-12T06:13:02.444Z,3.00
2022-08-12T06:15:31.389Z,3.42
2022-08-12T06:18:05.360Z,3.20
2022-08-12T06:20:42.174Z,3.28
2022-08-12T06:23:11.855Z,2.90
2022-08-12T06:25:40.767Z,2.95
2022-08-12T06:28:17.508Z,2.85
2022-08-12T06:30:53.096Z,3.10
2022-08-12T06:33:55.949Z,3.13
2022-08-12T06:36:24.988Z,2.80
2022-08-12T06:38:59.597Z,3.10
2022-08-12T06:42:17.733Z,2.65
2022-08-12T06:44:33.789Z,2.40
2022-08-12T06:47:01.766Z,2.65
2022-08-12T06:49:34.738Z,2.53
2022-08-12T06:52:04.408Z,2.50
2022-08-12T06:54:35.356Z,2.78
2022-08-12T06:57:57.015Z,2.65
2022-08-12T06:59:51.592Z,2.40
2022-08-12T07:02:22.563Z,2.42
2022-08-12T07:04:52.580Z,3.13
2022-08-12T07:07:21.127Z,2.58
2022-08-12T07:10:04.087Z,2.10
2022-08-12T07:12:35.280Z,2.08
2022-08-12T07:15:05.161Z,1.92
2022-08-12T07:17:37.747Z,2.17
2022-08-12T07:20:08.202Z,1.90
2022-08-12T07:22:36.607Z,1.88
2022-08-12T07:25:24.616Z,1.90
2022-08-12T07:27:54.412Z,2.13
2022-08-12T07:30:22.996Z,1.70
2022-08-12T07:32:51.750Z,1.92
2022-08-12T07:35:20.364Z,2.20
2022-08-12T07:37:50.570Z,2.05
2022-08-12T07:40:20.306Z,1.92
2022-08-12T07:42:48.552Z,2.17
2022-08-12T07:45:16.832Z,1.80
2022-08-12T07:47:44.877Z,1.90
2022-08-12T07:50:13.758Z,1.92
2022-08-12T07:52:43.647Z,1.60
2022-08-12T07:55:12.797Z,2.10
2022-08-12T07:57:52.422Z,1.70
2022-08-12T08:00:20.996Z,1.42
2022-08-12T08:02:50.357Z,1.38
2022-08-12T08:05:19.472Z,1.40
2022-08-12T08:07:47.615Z,1.30
2022-08-12T08:10:16.622Z,1.45
2022-08-12T08:13:04.405Z,1.30
2022-08-12T08:16:01.098Z,1.30
2022-08-12T08:18:26.920Z,1.13
2022-08-12T08:20:56.901Z,1.20
2022-08-12T08:23:46.938Z,1.25
2022-08-12T08:26:25.844Z,1.42
2022-08-12T08:28:53.873Z,1.02
2022-08-12T08:31:23.183Z,0.90
2022-08-12T08:34:05.416Z,1.10
2022-08-12T08:36:39.975Z,0.80
2022-08-12T08:39:07.966Z,1.00
2022-08-12T08:42:15.213Z,1.00
2022-08-12T08:44:42.130Z,1.02
2022-08-12T08:47:13.506Z,1.10
2022-08-12T08:49:42.444Z,0.90
2022-08-12T08:52:11.726Z,1.20
2022-08-12T08:54:40.584Z,1.80
2022-08-12T08:57:09.242Z,0.90
2022-08-12T08:59:37.541Z,1.10
2022-08-12T09:02:07.695Z,1.17
2022-08-12T09:05:12.700Z,0.97
2022-08-12T09:07:51.134Z,0.90
2022-08-12T09:10:31.357Z,1.00
2022-08-12T09:13:23.712Z,1.10
2022-08-12T09:15:59.597Z,1.13
2022-08-12T09:18:33.215Z,1.00
2022-08-12T09:21:03.822Z,1.23
2022-08-12T09:29:14.128Z,0.98
2022-08-12T09:32:08.041Z,1.20
2022-08-12T09:34:33.463Z,1.23
2022-08-12T09:37:19.899Z,1.08
2022-08-12T09:40:00.886Z,0.93
2022-08-12T09:43:11.271Z,1.10
2022-08-12T09:46:06.823Z,1.17
2022-08-12T09:48:35.804Z,0.98
2022-08-12T09:51:17.221Z,1.40
2022-08-12T09:54:08.991Z,0.98
2022-08-12T09:56:58.791Z,0.80
2022-08-12T10:00:17.195Z,1.02
2022-08-12T10:02:45.762Z,0.98
2022-08-12T10:05:04.963Z,1.20
2022-08-12T10:07:39.639Z,1.27
2022-08-12T10:10:23.995Z,1.05
2022-08-12T10:13:14.676Z,1.42
2022-08-12T10:16:05.034Z,0.98
2022-08-12T10:18:35.477Z,1.15
2022-08-12T10:21:08.618Z,1.30
2022-08-12T10:23:40.049Z,1.27
2022-08-12T10:26:36.753Z,1.25
2022-08-12T10:30:38.248Z,1.30
2022-08-12T10:32:21.574Z,1.20
2022-08-12T10:34:53.360Z,0.93
2022-08-12T10:38:35.647Z,1.20
2022-08-12T10:40:25.363Z,1.15
2022-08-12T10:43:16.777Z,1.45
2022-08-12T10:45:49.718Z,1.30
2022-08-12T10:48:33.688Z,1.15
2022-08-12T10:51:51.629Z,1.00
2022-08-12T10:54:00.549Z,1.40
2022-08-12T10:56:34.670Z,1.10
2022-08-12T10:59:10.777Z,1.27
2022-08-12T11:04:15.080Z,1.40
2022-08-12T11:04:49.240Z,0.90
2022-08-12T11:08:36.796Z,1.15
2022-08-12T11:10:09.625Z,1.40
2022-08-12T11:12:58.904Z,1.20
2022-08-12T11:16:02.688Z,1.13
2022-08-12T11:18:18.647Z,1.33
2022-08-12T11:20:48.881Z,1.00
2022-08-12T11:23:36.294Z,1.42
2022-08-12T11:26:07.914Z,1.20
2022-08-12T11:28:38.371Z,1.33
2022-08-12T11:31:12.075Z,1.10
2022-08-12T11:34:04.406Z,1.13
2022-08-12T11:36:30.658Z,1.90
2022-08-12T11:39:04.518Z,1.40
2022-08-12T11:41:34.709Z,1.30
2022-08-12T11:44:36.874Z,1.02
2022-08-12T11:46:55.556Z,1.15
2022-08-12T11:49:30.784Z,1.08
2022-08-12T11:52:04.193Z,1.27
2022-08-12T11:54:50.757Z,1.30
2022-08-12T11:58:01.237Z,1.08
2022-08-12T12:02:02.279Z,1.10
2022-08-12T12:02:57.949Z,1.77
2022-08-12T12:05:28.540Z,1.10
2022-08-12T12:08:37.700Z,1.02
2022-08-12T12:10:56.180Z,1.30
2022-08-12T12:14:08.062Z,1.77
2022-08-12T12:16:12.260Z,1.13
2022-08-12T12:18:42.598Z,0.93
2022-08-12T12:21:10.839Z,1.30
2022-08-12T12:23:40.723Z,1.13
2022-08-12T12:26:35.050Z,1.00
2022-08-12T12:29:03.387Z,0.95
2022-08-12T12:32:10.175Z,1.80
2022-08-12T12:34:30.380Z,1.00
2022-08-12T12:37:00.823Z,1.25
2022-08-12T12:39:29.226Z,1.10
2022-08-12T12:42:42.843Z,1.10
2022-08-12T12:45:19.413Z,1.20
2022-08-12T12:47:58.142Z,1.10
2022-08-12T12:50:35.286Z,1.15
2022-08-12T12:53:04.427Z,0.90
2022-08-12T12:55:35.675Z,1.30
2022-08-12T12:58:04.781Z,1.25
2022-08-12T13:00:33.618Z,1.10
2022-08-12T13:03:02.201Z,1.38
2022-08-12T13:05:42.596Z,1.50
2022-08-12T13:08:28.124Z,1.30
2022-08-12T13:11:05.163Z,1.10
2022-08-12T13:14:08.567Z,1.20
2022-08-12T13:16:23.024Z,1.23
2022-08-12T13:18:52.409Z,1.77
2022-08-12T13:21:33.505Z,1.27
2022-08-12T13:24:09.878Z,1.40
2022-08-12T13:26:40.089Z,1.00
2022-08-12T13:29:11.121Z,1.20
2022-08-12T13:31:46.443Z,1.23
2022-08-12T13:34:34.570Z,1.20
2022-08-12T13:37:09.852Z,1.45
2022-08-12T13:39:38.563Z,1.35
2022-08-12T13:42:13.883Z,1.60
2022-08-12T13:44:42.935Z,1.38
2022-08-12T13:47:19.899Z,1.27
2022-08-12T13:49:53.851Z,1.45
2022-08-12T13:52:25.703Z,1.35
2022-08-12T13:54:56.155Z,1.10
2022-08-12T13:57:28.935Z,1.38
2022-08-12T14:00:00.792Z,1.00
2022-08-12T14:04:57.685Z,1.55
2022-08-12T14:07:27.485Z,1.17
2022-08-12T14:10:16.356Z,1.20
2022-08-12T14:12:54.391Z,1.30
2022-08-12T14:15:31.187Z,1.08
2022-08-12T14:18:09.567Z,1.17
2022-08-12T14:20:43.769Z,1.38
2022-08-12T14:24:04.262Z,1.30
2022-08-12T14:26:11.995Z,1.35
2022-08-12T14:28:45.183Z,0.95
2022-08-12T14:31:31.290Z,1.75
2022-08-12T14:34:00.278Z,1.42
2022-08-12T14:36:34.040Z,1.65
2022-08-12T14:39:04.981Z,1.27
2022-08-12T14:41:36.924Z,1.20
2022-08-12T14:44:57.775Z,1.17
2022-08-12T14:47:07.761Z,1.35
2022-08-12T14:50:41.675Z,1.10
2022-08-12T14:53:11.651Z,1.50
2022-08-12T14:58:03.669Z,1.70
2022-08-12T15:00:52.181Z,1.50
2022-08-12T15:03:23.250Z,1.45
2022-08-12T15:06:05.760Z,1.30
2022-08-12T15:08:40.539Z,1.25
2022-08-12T15:11:13.519Z,1.40
2022-08-12T15:13:45.666Z,1.25
2022-08-12T15:16:14.356Z,1.30
2022-08-12T15:18:55.061Z,1.23
2022-08-12T15:21:25.145Z,1.55
2022-08-12T15:24:13.065Z,1.45
2022-08-12T15:26:42.593Z,1.35
2022-08-12T15:29:10.564Z,1.10
2022-08-12T15:32:00.899Z,1.55
2022-08-12T15:34:30.874Z,1.75
2022-08-12T15:36:58.960Z,1.45
2022-08-12T15:39:28.385Z,1.35
2022-08-12T15:42:01.935Z,1.23
2022-08-12T15:44:37.763Z,1.25
2022-08-12T15:47:07.279Z,1.50
2022-08-12T15:49:54.417Z,1.50
2022-08-12T15:52:28.245Z,1.48
2022-08-12T15:54:58.725Z,1.48
2022-08-12T15:57:33.305Z,1.48
2022-08-12T16:00:07.380Z,1.58
2022-08-12T16:02:42.059Z,1.30
2022-08-12T16:06:12.622Z,1.30
2022-08-12T16:08:15.266Z,1.50
2022-08-12T16:10:45.680Z,1.60
2022-08-12T16:13:18.159Z,1.38
2022-08-12T16:16:02.486Z,1.35
2022-08-12T16:18:33.374Z,1.20
2022-08-12T16:21:02.269Z,1.20
2022-08-12T16:23:51.981Z,1.33
2022-08-12T16:26:32.757Z,1.38
2022-08-12T16:29:15.344Z,1.60
2022-08-12T16:31:44.843Z,1.60
2022-08-12T16:34:25.442Z,1.42
2022-08-12T16:36:54.244Z,1.40
2022-08-12T16:39:22.506Z,1.48
2022-08-12T16:41:50.765Z,1.35
2022-08-12T16:44:20.192Z,1.58
2022-08-12T16:46:57.587Z,1.40
2022-08-12T16:49:26.412Z,1.80
2022-08-12T16:52:07.864Z,1.67
2022-08-12T16:54:40.553Z,1.45
2022-08-12T16:57:09.565Z,1.50
2022-08-12T16:59:54.060Z,1.48
2022-08-12T17:02:34.050Z,1.75
2022-08-12T17:05:04.607Z,1.48
2022-08-12T17:07:37.870Z,1.50
2022-08-12T17:10:07.525Z,1.40
2022-08-12T17:12:37.465Z,1.90
2022-08-12T17:15:50.295Z,1.40
2022-08-12T17:18:42.624Z,1.52
2022-08-12T17:20:47.589Z,1.75
2022-08-12T17:23:17.035Z,1.70
2022-08-12T17:25:46.455Z,1.58
2022-08-12T17:28:17.739Z,1.80
2022-08-12T17:30:59.589Z,1.20
2022-08-12T17:33:33.696Z,1.90
2022-08-12T17:36:05.418Z,1.60
2022-08-12T17:38:34.614Z,1.75
2022-08-12T17:41:08.163Z,2.10
2022-08-12T17:43:58.330Z,1.90
2022-08-12T17:46:32.080Z,1.70
2022-08-12T17:49:19.080Z,1.77
2022-08-12T17:52:02.519Z,1.58
2022-08-12T17:54:31.639Z,1.65
2022-08-12T17:57:01.735Z,1.70
2022-08-12T17:59:48.509Z,2.00
2022-08-12T18:02:25.433Z,2.00
2022-08-12T18:05:09.539Z,1.52
2022-08-12T18:07:39.503Z,1.83
2022-08-12T18:10:08.466Z,1.77
2022-08-12T18:12:42.708Z,1.80
2022-08-12T18:18:16.735Z,2.08
2022-08-12T18:20:46.305Z,2.05
2022-08-12T18:23:14.253Z,2.60
2022-08-12T18:26:14.766Z,2.00
2022-08-12T18:28:47.939Z,2.10
2022-08-12T18:31:17.942Z,2.00
2022-08-12T18:33:47.345Z,2.10
2022-08-12T18:36:22.589Z,2.05
2022-08-12T18:38:56.091Z,2.22
2022-08-12T18:41:33.534Z,1.77
2022-08-12T18:44:07.854Z,2.30
2022-08-12T18:46:47.261Z,1.77
2022-08-12T18:49:21.681Z,2.28
2022-08-12T18:51:55.059Z,2.08
2022-08-12T18:54:26.748Z,1.90
2022-08-12T18:56:56.429Z,2.03
2022-08-12T19:00:00.783Z,2.42
2022-08-12T19:02:21.769Z,2.00
2022-08-12T19:04:54.113Z,2.97
2022-08-12T19:07:23.372Z,2.47
2022-08-12T19:09:58.767Z,2.55
2022-08-12T19:12:57.412Z,2.30
2022-08-12T19:15:27.365Z,2.10
2022-08-12T19:18:01.071Z,2.67
2022-08-12T19:20:32.829Z,1.83
2022-08-12T19:23:16.099Z,2.53
2022-08-12T19:28:34.784Z,2.65
2022-08-12T19:31:56.132Z,2.67
2022-08-12T19:35:06.529Z,2.45
2022-08-12T19:37:17.237Z,2.45
2022-08-12T19:40:09.659Z,2.88
2022-08-12T19:42:36.165Z,3.85
2022-08-12T19:45:12.339Z,3.10
2022-08-12T19:47:44.660Z,2.70
2022-08-12T19:50:20.084Z,2.60
2022-08-12T19:52:51.376Z,2.67
2022-08-12T19:55:23.333Z,2.88
2022-08-12T19:58:01.482Z,2.88
2022-08-12T20:00:30.941Z,2.70
2022-08-12T20:03:00.702Z,2.80
2022-08-12T20:06:04.596Z,2.70
2022-08-12T20:08:34.194Z,2.60
2022-08-12T20:12:09.617Z,3.17
2022-08-12T20:14:01.045Z,3.17
2022-08-12T20:16:52.240Z,3.53
2022-08-12T20:19:21.405Z,4.07
2022-08-12T20:21:51.764Z,3.97
2022-08-12T20:24:31.474Z,4.33
2022-08-12T20:27:00.221Z,4.05
2022-08-12T20:29:36.614Z,3.92
2022-08-12T20:32:14.408Z,3.83
2022-08-12T20:34:49.004Z,3.95
2022-08-12T20:37:22.376Z,4.03
2022-08-12T20:40:12.593Z,4.03
2022-08-12T20:42:41.334Z,3.42
2022-08-12T20:45:10.196Z,4.03
2022-08-12T20:47:42.113Z,3.75
2022-08-12T20:50:15.455Z,3.55
2022-08-12T20:52:49.112Z,3.10
2022-08-12T20:55:19.265Z,3.50
2022-08-12T20:58:02.504Z,2.92
2022-08-12T21:00:33.233Z,3.50
2022-08-12T21:03:21.663Z,3.10
2022-08-12T21:06:11.839Z,3.42
2022-08-12T21:08:42.695Z,3.83
2022-08-12T21:11:12.018Z,3.80
2022-08-12T21:13:42.164Z,3.70
2022-08-12T21:16:11.524Z,3.78
2022-08-12T21:18:39.695Z,4.07
2022-08-12T21:21:23.227Z,4.00
2022-08-12T21:23:56.540Z,4.22
2022-08-12T21:26:29.063Z,4.22
2022-08-12T21:29:01.738Z,3.35
2022-08-12T21:32:36.168Z,4.35
2022-08-12T21:34:29.209Z,3.78
2022-08-12T21:37:12.869Z,4.20
2022-08-12T21:39:41.384Z,3.78
2022-08-12T21:42:27.012Z,3.75
2022-08-12T21:45:48.350Z,4.22
2022-08-12T21:47:46.395Z,5.38
2022-08-12T21:50:17.918Z,5.75
2022-08-12T21:52:49.060Z,4.63
2022-08-12T21:55:20.218Z,3.92
2022-08-12T21:57:53.914Z,3.65
2022-08-12T22:00:34.257Z,4.40
2022-08-12T22:04:02.256Z,3.10
2022-08-12T22:06:20.359Z,4.07
2022-08-12T22:09:01.969Z,4.20
2022-08-12T22:11:42.052Z,4.30
2022-08-12T22:14:17.880Z,3.75
2022-08-12T22:16:50.266Z,4.18
2022-08-12T22:19:19.304Z,4.13
2022-08-12T22:21:53.067Z,3.63
2022-08-12T22:24:25.777Z,3.47
2022-08-12T22:26:55.270Z,3.45
2022-08-12T22:29:42.424Z,4.15
2022-08-12T22:32:11.296Z,3.30
2022-08-12T22:34:40.314Z,3.38
2022-08-12T22:37:19.811Z,4.05
2022-08-12T22:39:49.306Z,3.53
2022-08-12T22:42:35.712Z,4.25
2022-08-12T22:45:23.768Z,4.70
2022-08-12T22:47:54.773Z,4.25
2022-08-12T22:53:14.606Z,3.90
2022-08-12T22:56:00.501Z,3.75
2022-08-12T22:58:33.447Z,3.90
2022-08-12T23:01:03.697Z,4.07
2022-08-12T23:03:49.227Z,4.10
2022-08-12T23:06:21.256Z,4.00
2022-08-12T23:08:49.941Z,4.53
2022-08-12T23:11:23.632Z,3.88
2022-08-12T23:14:01.647Z,4.30
2022-08-12T23:16:34.217Z,3.47
2022-08-12T23:19:10.729Z,4.10
2022-08-12T23:22:06.455Z,3.83
2022-08-12T23:24:55.789Z,4.35
2022-08-12T23:27:50.462Z,4.10
2022-08-12T23:30:24.975Z,4.00
2022-08-12T23:33:01.410Z,3.67
2022-08-12T23:35:53.718Z,3.60
2022-08-12T23:38:30.987Z,3.60
2022-08-12T23:41:00.978Z,3.65
2022-08-12T23:43:39.921Z,3.65
2022-08-12T23:46:10.465Z,3.60
2022-08-12T23:48:40.856Z,3.83
2022-08-12T23:51:21.956Z,4.18
2022-08-12T23:53:52.905Z,3.75
2022-08-12T23:56:24.574Z,3.78
2022-08-12T23:58:55.270Z,4.13
